Time;durP1;ratioP1;P1;durP2;ratioP2;P2;SDS_P1;SDS_P2;PMS_P1;PMS_P2;Temp;Humidity;BMP_temperature;BMP_pressure;BME280_temperature;BME280_humidity;BME280_pressure;Samples;Min_cycle;Max_cycle;Signal;HPM_P1;HPM_P2
2023/06/02 00:01:02;;;;;;;9.50;6.00;;;;;;;;;;5031060;28;20030;-74
2023/06/02 00:03:33;;;;;;;12.75;6.35;;;;;;;;;;5022277;28;20394;-74
2023/06/02 00:06:00;;;;;;;14.48;5.90;;;;;;;;;;5050892;28;20543;-74
2023/06/02 00:08:30;;;;;;;10.15;5.60;;;;;;;;;;5051410;28;20061;-74
2023/06/02 00:10:56;;;;;;;13.67;5.83;;;;;;;;;;5054638;28;20371;-74
2023/06/02 00:13:22;;;;;;;10.30;6.07;;;;;;;;;;5054689;28;20032;-73
2023/06/02 00:15:49;;;;;;;11.93;6.60;;;;;;;;;;5036463;28;20123;-74
2023/06/02 00:18:15;;;;;;;10.32;6.00;;;;;;;;;;5047213;28;20495;-74
2023/06/02 00:20:42;;;;;;;9.73;6.18;;;;;;;;;;5034497;28;20041;-74
2023/06/02 00:23:08;;;;;;;10.25;6.20;;;;;;;;;;5035016;28;20056;-75
2023/06/02 00:25:34;;;;;;;12.93;7.10;;;;;;;;;;5035055;28;20395;-75
2023/06/02 00:28:01;;;;;;;10.45;6.25;;;;;;;;;;5034485;28;20112;-75
2023/06/02 00:30:27;;;;;;;15.35;7.22;;;;;;;;;;5035119;28;20029;-75
2023/06/02 00:32:53;;;;;;;16.33;6.10;;;;;;;;;;5016997;28;20063;-74
2023/06/02 00:35:19;;;;;;;14.02;6.63;;;;;;;;;;5034699;28;20049;-74
2023/06/02 00:37:46;;;;;;;11.10;6.28;;;;;;;;;;5032469;28;20052;-75
2023/06/02 00:40:12;;;;;;;15.57;6.35;;;;;;;;;;5032906;28;20025;-74
2023/06/02 00:42:38;;;;;;;11.02;6.25;;;;;;;;;;5032872;28;20108;-75
2023/06/02 00:45:05;;;;;;;12.20;6.10;;;;;;;;;;5032600;28;20057;-75
2023/06/02 00:47:31;;;;;;;14.32;6.20;;;;;;;;;;5032001;28;20021;-75
2023/06/02 00:49:57;;;;;;;13.25;7.15;;;;;;;;;;5032546;28;20048;-75
2023/06/02 00:52:24;;;;;;;14.18;6.82;;;;;;;;;;5032849;28;20101;-75
2023/06/02 00:54:50;;;;;;;11.30;6.35;;;;;;;;;;5033666;28;20021;-74
2023/06/02 00:57:16;;;;;;;13.57;6.60;;;;;;;;;;5033068;28;20026;-75
2023/06/02 00:59:43;;;;;;;16.17;6.50;;;;;;;;;;5034001;28;20025;-74
2023/06/02 01:02:10;;;;;;;16.48;5.75;;;;;;;;;;5034228;28;20030;-74
2023/06/02 01:04:36;;;;;;;7.63;5.45;;;;;;;;;;5033702;28;20021;-74
2023/06/02 01:07:03;;;;;;;15.75;5.80;;;;;;;;;;5053730;28;20025;-75
2023/06/02 01:09:29;;;;;;;12.13;6.85;;;;;;;;;;5053378;28;20414;-74
2023/06/02 01:11:56;;;;;;;10.13;6.72;;;;;;;;;;5035967;28;20036;-75
2023/06/02 01:14:22;;;;;;;14.27;5.68;;;;;;;;;;5053911;28;20116;-74
2023/06/02 01:16:52;;;;;;;12.57;6.70;;;;;;;;;;5053358;28;20497;-75
2023/06/02 01:19:21;;;;;;;14.60;6.13;;;;;;;;;;5037826;28;20029;-74
2023/06/02 01:21:57;;;;;;;12.93;6.40;;;;;;;;;;5032708;28;20035;-74
2023/06/02 01:24:30;;;;;;;14.20;6.70;;;;;;;;;;5033714;28;20049;-74
2023/06/02 01:26:58;;;;;;;11.07;5.72;;;;;;;;;;5033832;28;20068;-74
2023/06/02 01:29:24;;;;;;;10.75;5.50;;;;;;;;;;5076462;23;20451;-73
2023/06/02 01:31:53;;;;;;;14.65;6.70;;;;;;;;;;5072555;28;20057;-74
2023/06/02 01:34:22;;;;;;;12.02;5.88;;;;;;;;;;5056931;28;20035;-74
2023/06/02 01:36:51;;;;;;;16.70;7.25;;;;;;;;;;5074292;28;20509;-74
2023/06/02 01:39:17;;;;;;;14.02;6.70;;;;;;;;;;5071960;28;20033;-74
2023/06/02 01:41:45;;;;;;;12.25;6.40;;;;;;;;;;5072643;28;20107;-74
2023/06/02 01:44:11;;;;;;;14.50;6.70;;;;;;;;;;5072606;28;20024;-74
2023/06/02 01:46:39;;;;;;;11.15;5.85;;;;;;;;;;5072444;28;20112;-74
2023/06/02 01:49:12;;;;;;;10.55;7.07;;;;;;;;;;5071648;28;20522;-74
2023/06/02 01:51:38;;;;;;;13.18;7.05;;;;;;;;;;5054277;28;20036;-74
2023/06/02 01:54:04;;;;;;;12.00;6.85;;;;;;;;;;5072382;28;20036;-74
2023/06/02 01:56:30;;;;;;;12.75;7.38;;;;;;;;;;5072088;28;20493;-74
2023/06/02 01:58:57;;;;;;;15.02;7.63;;;;;;;;;;5071585;28;20024;-75
2023/06/02 02:01:24;;;;;;;12.93;6.80;;;;;;;;;;5072048;28;20017;-75
2023/06/02 02:03:50;;;;;;;13.48;6.65;;;;;;;;;;5054228;28;20020;-74
2023/06/02 02:06:17;;;;;;;16.88;6.60;;;;;;;;;;5072068;28;20500;-75
2023/06/02 02:08:43;;;;;;;13.23;6.47;;;;;;;;;;5071550;28;20082;-74
2023/06/02 02:11:09;;;;;;;14.73;7.18;;;;;;;;;;5072081;28;20536;-74
2023/06/02 02:13:35;;;;;;;15.40;7.15;;;;;;;;;;5071780;28;20032;-74
2023/06/02 02:16:01;;;;;;;11.55;6.88;;;;;;;;;;5071928;28;20029;-75
2023/06/02 02:18:27;;;;;;;12.07;7.35;;;;;;;;;;5070957;28;20017;-75
2023/06/02 02:20:53;;;;;;;16.13;7.28;;;;;;;;;;5072034;28;20020;-74
2023/06/02 02:23:19;;;;;;;15.65;8.48;;;;;;;;;;5072240;28;20016;-74
2023/06/02 02:25:45;;;;;;;14.00;7.57;;;;;;;;;;5055621;28;20456;-74
2023/06/02 02:28:11;;;;;;;12.32;7.10;;;;;;;;;;5072763;28;20025;-74
2023/06/02 02:30:37;;;;;;;15.27;6.88;;;;;;;;;;5055935;28;20032;-74
2023/06/02 02:33:03;;;;;;;18.95;7.88;;;;;;;;;;5075523;28;20032;-74
2023/06/02 02:35:29;;;;;;;17.02;7.03;;;;;;;;;;5072963;28;20103;-74
2023/06/02 02:37:55;;;;;;;11.88;6.15;;;;;;;;;;5072014;28;20074;-74
2023/06/02 02:40:21;;;;;;;13.70;6.40;;;;;;;;;;5072445;28;20028;-74
2023/06/02 02:42:47;;;;;;;15.00;7.03;;;;;;;;;;5072213;28;20474;-74
2023/06/02 02:45:13;;;;;;;14.52;6.88;;;;;;;;;;5072168;28;20032;-76
2023/06/02 02:47:39;;;;;;;9.10;6.10;;;;;;;;;;5070562;28;20017;-75
2023/06/02 02:50:05;;;;;;;16.17;6.57;;;;;;;;;;5071005;28;20028;-73
2023/06/02 02:52:32;;;;;;;8.75;5.82;;;;;;;;;;5071265;28;20016;-74
2023/06/02 02:54:58;;;;;;;18.95;6.78;;;;;;;;;;5071270;28;20059;-74
2023/06/02 02:57:24;;;;;;;14.18;6.00;;;;;;;;;;5070555;28;20035;-75
2023/06/02 02:59:50;;;;;;;12.32;5.90;;;;;;;;;;5052964;28;20052;-73
2023/06/02 03:02:16;;;;;;;10.38;5.97;;;;;;;;;;5071102;28;20048;-74
2023/06/02 03:04:43;;;;;;;13.75;5.97;;;;;;;;;;5071266;28;20028;-74
2023/06/02 03:07:09;;;;;;;13.15;6.03;;;;;;;;;;5070672;28;20078;-73
2023/06/02 03:09:35;;;;;;;14.93;6.07;;;;;;;;;;5071183;28;20016;-74
2023/06/02 03:12:01;;;;;;;11.25;6.05;;;;;;;;;;5071072;28;20082;-74
2023/06/02 03:14:28;;;;;;;12.35;5.53;;;;;;;;;;5071137;28;20025;-74
2023/06/02 03:16:56;;;;;;;14.50;5.95;;;;;;;;;;5070987;28;20032;-74
2023/06/02 03:19:24;;;;;;;10.95;5.82;;;;;;;;;;5070325;28;20025;-74
2023/06/02 03:21:51;;;;;;;13.32;5.60;;;;;;;;;;5071054;28;20103;-74
2023/06/02 03:24:18;;;;;;;13.65;5.80;;;;;;;;;;5071223;28;20405;-74
2023/06/02 03:26:44;;;;;;;14.60;5.70;;;;;;;;;;5070971;28;20176;-73
2023/06/02 03:29:11;;;;;;;15.20;5.68;;;;;;;;;;5070116;28;20476;-75
2023/06/02 03:31:37;;;;;;;15.90;5.63;;;;;;;;;;5071015;28;20029;-76
2023/06/02 03:34:04;;;;;;;11.45;5.78;;;;;;;;;;5052893;28;20059;-76
2023/06/02 03:36:34;;;;;;;17.05;5.50;;;;;;;;;;5071344;28;20138;-75
2023/06/02 03:39:00;;;;;;;18.87;6.33;;;;;;;;;;5070134;28;20035;-75
2023/06/02 03:41:26;;;;;;;10.70;5.45;;;;;;;;;;5070960;28;20353;-75
2023/06/02 03:43:52;;;;;;;17.25;6.38;;;;;;;;;;5072473;28;20017;-74
2023/06/02 03:46:18;;;;;;;13.02;5.47;;;;;;;;;;5064803;28;20029;-74
2023/06/02 03:48:44;;;;;;;11.77;5.03;;;;;;;;;;5053821;28;20518;-74
2023/06/02 03:51:10;;;;;;;13.27;5.38;;;;;;;;;;5055050;28;20025;-74
2023/06/02 03:53:36;;;;;;;15.07;5.55;;;;;;;;;;5054921;28;20021;-74
2023/06/02 03:56:02;;;;;;;19.50;6.05;;;;;;;;;;5036927;28;20438;-74
2023/06/02 03:58:28;;;;;;;10.98;5.55;;;;;;;;;;5053585;28;20439;-74
2023/06/02 04:00:55;;;;;;;12.52;4.75;;;;;;;;;;5054277;28;20036;-74
2023/06/02 04:03:22;;;;;;;14.82;5.50;;;;;;;;;;5054667;28;20021;-76
2023/06/02 04:05:48;;;;;;;15.18;6.20;;;;;;;;;;5054359;28;20032;-73
2023/06/02 04:08:14;;;;;;;13.30;4.85;;;;;;;;;;5053781;28;20452;-74
2023/06/02 04:10:40;;;;;;;15.23;4.88;;;;;;;;;;5054376;28;20037;-73
2023/06/02 04:13:06;;;;;;;14.77;5.43;;;;;;;;;;5036656;28;20518;-74
2023/06/02 04:15:33;;;;;;;16.05;5.13;;;;;;;;;;5054010;28;20029;-74
2023/06/02 04:17:59;;;;;;;20.95;6.18;;;;;;;;;;5038883;28;20033;-74
2023/06/02 04:20:25;;;;;;;12.60;4.47;;;;;;;;;;5073996;28;20020;-74
2023/06/02 04:22:51;;;;;;;16.13;5.30;;;;;;;;;;5074153;28;20027;-74
2023/06/02 04:25:17;;;;;;;14.23;5.32;;;;;;;;;;5074082;28;20033;-73
2023/06/02 04:27:44;;;;;;;19.35;5.03;;;;;;;;;;5071371;28;20068;-73
2023/06/02 04:30:10;;;;;;;13.90;4.95;;;;;;;;;;5071945;28;20036;-73
2023/06/02 04:32:36;;;;;;;15.15;5.40;;;;;;;;;;5073755;28;20104;-74
2023/06/02 04:35:03;;;;;;;16.00;5.10;;;;;;;;;;5047621;28;20025;-74
2023/06/02 04:37:29;;;;;;;18.65;4.85;;;;;;;;;;5073932;28;20016;-73
2023/06/02 04:39:57;;;;;;;14.80;4.95;;;;;;;;;;5075400;28;20017;-74
2023/06/02 04:42:23;;;;;;;13.45;4.93;;;;;;;;;;5074449;28;20090;-74
2023/06/02 04:44:51;;;;;;;16.20;5.00;;;;;;;;;;5055701;28;20032;-74
2023/06/02 04:47:17;;;;;;;19.40;5.50;;;;;;;;;;5073205;28;20099;-73
2023/06/02 04:49:43;;;;;;;12.02;4.88;;;;;;;;;;5073932;28;20104;-74
2023/06/02 04:52:09;;;;;;;18.13;5.05;;;;;;;;;;5055891;28;20534;-74
2023/06/02 04:54:36;;;;;;;12.68;4.63;;;;;;;;;;5072695;28;20025;-73
2023/06/02 04:57:05;;;;;;;11.95;5.03;;;;;;;;;;5073032;28;20028;-73
2023/06/02 04:59:35;;;;;;;15.50;4.65;;;;;;;;;;5073222;28;20397;-73
2023/06/02 05:02:02;;;;;;;17.70;4.53;;;;;;;;;;5073295;28;20031;-73
2023/06/02 05:04:28;;;;;;;18.95;5.20;;;;;;;;;;5059917;28;20502;-74
2023/06/02 05:06:54;;;;;;;16.15;4.85;;;;;;;;;;5053404;28;20104;-74
2023/06/02 05:09:20;;;;;;;15.38;4.63;;;;;;;;;;5052823;28;20025;-75
2023/06/02 05:11:47;;;;;;;29.73;5.38;;;;;;;;;;5052918;28;20525;-73
2023/06/02 05:14:13;;;;;;;20.45;5.53;;;;;;;;;;5053007;28;20150;-74
2023/06/02 05:16:44;;;;;;;19.85;5.38;;;;;;;;;;5035270;28;20032;-75
2023/06/02 05:19:10;;;;;;;19.33;6.03;;;;;;;;;;5052389;28;20059;-75
2023/06/02 05:21:36;;;;;;;19.98;4.80;;;;;;;;;;5052683;28;20443;-73
2023/06/02 05:24:02;;;;;;;16.00;4.47;;;;;;;;;;5052581;28;20036;-74
2023/06/02 05:26:28;;;;;;;17.38;5.25;;;;;;;;;;5052878;28;20083;-74
2023/06/02 05:28:54;;;;;;;20.40;5.38;;;;;;;;;;5052856;28;20029;-73
2023/06/02 05:31:20;;;;;;;13.65;5.13;;;;;;;;;;5054360;28;20029;-74
2023/06/02 05:33:46;;;;;;;13.55;4.60;;;;;;;;;;5053372;28;20112;-75
2023/06/02 05:36:12;;;;;;;17.02;5.82;;;;;;;;;;5052676;28;20449;-75
2023/06/02 05:38:45;;;;;;;17.70;5.50;;;;;;;;;;5051655;28;20029;-74
2023/06/02 05:41:11;;;;;;;17.17;5.03;;;;;;;;;;5052615;28;20027;-74
2023/06/02 05:43:37;;;;;;;17.90;4.63;;;;;;;;;;5052555;28;20032;-74
2023/06/02 05:46:03;;;;;;;21.02;5.00;;;;;;;;;;5052076;28;20048;-74
2023/06/02 05:48:30;;;;;;;16.67;4.35;;;;;;;;;;5051894;28;20021;-74
2023/06/02 05:50:56;;;;;;;19.88;5.10;;;;;;;;;;5052441;28;20372;-74
2023/06/02 05:53:22;;;;;;;11.23;4.25;;;;;;;;;;5034768;28;20033;-74
2023/06/02 05:55:48;;;;;;;10.32;4.50;;;;;;;;;;5034411;28;20082;-75
2023/06/02 05:58:14;;;;;;;18.00;4.90;;;;;;;;;;5051618;28;20036;-74
2023/06/02 06:00:40;;;;;;;17.35;4.95;;;;;;;;;;5051708;28;20036;-75
2023/06/02 06:03:06;;;;;;;14.45;4.65;;;;;;;;;;5034319;28;20021;-75
2023/06/02 06:05:32;;;;;;;14.60;4.88;;;;;;;;;;5051362;28;20389;-75
2023/06/02 06:07:58;;;;;;;20.98;5.20;;;;;;;;;;5051159;28;20550;-77
2023/06/02 06:10:24;;;;;;;11.35;4.40;;;;;;;;;;5052040;28;20135;-78
2023/06/02 06:12:50;;;;;;;15.05;4.70;;;;;;;;;;5034145;28;20029;-77
2023/06/02 06:15:16;;;;;;;13.60;4.22;;;;;;;;;;5051861;28;20363;-78
2023/06/02 06:17:49;;;;;;;19.65;5.35;;;;;;;;;;5051301;28;20103;-77
2023/06/02 06:20:15;;;;;;;13.48;4.70;;;;;;;;;;5032738;28;20087;-77
2023/06/02 06:22:45;;;;;;;18.10;5.13;;;;;;;;;;5050735;28;20086;-76
2023/06/02 06:25:11;;;;;;;20.05;4.63;;;;;;;;;;5051371;28;20021;-76
2023/06/02 06:27:37;;;;;;;11.27;4.00;;;;;;;;;;5049921;28;20017;-76
2023/06/02 06:30:04;;;;;;;19.10;5.00;;;;;;;;;;5049843;28;20154;-76
2023/06/02 06:32:30;;;;;;;19.05;4.47;;;;;;;;;;5049806;28;20027;-76
2023/06/02 06:34:56;;;;;;;20.40;5.00;;;;;;;;;;5050456;28;20078;-76
2023/06/02 06:37:22;;;;;;;20.38;4.82;;;;;;;;;;5049614;28;20500;-77
2023/06/02 06:39:50;;;;;;;15.70;4.38;;;;;;;;;;5049891;28;20047;-77
2023/06/02 06:42:16;;;;;;;18.25;4.43;;;;;;;;;;5051637;28;20025;-75
2023/06/02 06:44:42;;;;;;;16.70;4.88;;;;;;;;;;5065788;28;20060;-77
2023/06/02 06:47:08;;;;;;;17.98;5.18;;;;;;;;;;5049224;28;20031;-75
2023/06/02 06:49:34;;;;;;;16.13;4.85;;;;;;;;;;5051142;28;20032;-76
2023/06/02 06:52:00;;;;;;;18.00;4.63;;;;;;;;;;5058476;28;20021;-76
2023/06/02 06:54:26;;;;;;;20.00;5.35;;;;;;;;;;5071276;28;20017;-76
2023/06/02 06:56:55;;;;;;;13.40;5.00;;;;;;;;;;5053108;28;20537;-76
2023/06/02 06:59:21;;;;;;;21.17;5.55;;;;;;;;;;5070253;28;20069;-76
2023/06/02 07:01:53;;;;;;;17.25;4.47;;;;;;;;;;5058367;28;20045;-80
2023/06/02 07:04:19;;;;;;;14.70;4.10;;;;;;;;;;5051938;28;20028;-76
2023/06/02 07:06:45;;;;;;;15.20;4.97;;;;;;;;;;5051354;28;20163;-76
2023/06/02 07:09:15;;;;;;;42.92;14.52;;;;;;;;;;5032882;28;20056;-79
2023/06/02 07:11:41;;;;;;;20.77;7.20;;;;;;;;;;5053244;28;20083;-79
2023/06/02 07:14:07;;;;;;;23.08;6.78;;;;;;;;;;5054361;28;20465;-78
2023/06/02 07:16:33;;;;;;;21.75;5.03;;;;;;;;;;5050804;28;20053;-78
2023/06/02 07:18:59;;;;;;;17.00;5.03;;;;;;;;;;5049363;28;20655;-78
2023/06/02 07:21:25;;;;;;;17.70;4.70;;;;;;;;;;5050227;28;20116;-78
2023/06/02 07:23:51;;;;;;;14.57;4.28;;;;;;;;;;5050761;28;20438;-77
2023/06/02 07:26:17;;;;;;;28.15;7.32;;;;;;;;;;5045364;28;20025;-78
2023/06/02 07:28:46;;;;;;;21.75;6.07;;;;;;;;;;5068328;28;20032;-78
2023/06/02 07:31:12;;;;;;;26.70;8.57;;;;;;;;;;5049092;22;20100;-76
2023/06/02 07:33:38;;;;;;;17.38;5.47;;;;;;;;;;5024469;28;20026;-77
2023/06/02 07:36:04;;;;;;;19.70;4.53;;;;;;;;;;5027840;28;20021;-77
2023/06/02 07:38:30;;;;;;;19.48;5.25;;;;;;;;;;5029781;28;20476;-77
2023/06/02 07:40:56;;;;;;;20.42;5.32;;;;;;;;;;5012588;28;20083;-77
2023/06/02 07:43:22;;;;;;;14.95;4.88;;;;;;;;;;5010788;28;20032;-77
2023/06/02 07:45:48;;;;;;;16.27;5.13;;;;;;;;;;5010673;28;20096;-77
2023/06/02 07:48:14;;;;;;;22.48;6.15;;;;;;;;;;5010390;28;20457;-77
2023/06/02 07:50:40;;;;;;;17.25;4.40;;;;;;;;;;5010917;28;20026;-77
2023/06/02 07:53:06;;;;;;;17.02;4.40;;;;;;;;;;5010777;28;20076;-77
2023/06/02 07:55:32;;;;;;;14.95;4.07;;;;;;;;;;5011537;28;20400;-78
2023/06/02 07:57:58;;;;;;;19.65;4.75;;;;;;;;;;5027860;28;20029;-75
2023/06/02 08:00:25;;;;;;;13.70;4.85;;;;;;;;;;5010817;28;20029;-76
2023/06/02 08:02:51;;;;;;;17.30;4.97;;;;;;;;;;5028686;28;20576;-76
2023/06/02 08:05:17;;;;;;;15.18;4.53;;;27.80;34.60;;;;;;5028868;28;20028;-76
2023/06/02 08:07:44;;;;;;;14.07;4.03;;;27.80;34.40;;;;;;5028016;28;20037;-76
2023/06/02 08:10:10;;;;;;;14.45;4.03;;;28.40;33.60;;;;;;5029045;28;20022;-76
2023/06/02 08:12:36;;;;;;;17.75;4.18;;;28.60;33.20;;;;;;5029625;28;20029;-76
2023/06/02 08:15:02;;;;;;;12.48;3.78;;;29.10;31.90;;;;;;5030634;28;20022;-76
2023/06/02 08:17:31;;;;;;;15.82;4.75;;;28.80;32.60;;;;;;5029828;28;20030;-76
2023/06/02 08:19:58;;;;;;;18.85;4.70;;;27.90;32.70;;;;;;5030466;28;20025;-75
2023/06/02 08:22:26;;;;;;;15.90;4.05;;;;;;;;;;5030276;28;20108;-75
2023/06/02 08:24:56;;;;;;;25.08;4.80;;;;;;;;;;5030461;28;20100;-76
2023/06/02 08:27:23;;;;;;;13.05;3.90;;;;;;;;;;5029463;28;20373;-76
2023/06/02 08:29:49;;;;;;;22.05;4.97;;;;;;;;;;5031899;28;20041;-76
2023/06/02 08:32:17;;;;;;;14.65;4.53;;;;;;;;;;5016069;28;20021;-76
2023/06/02 08:34:44;;;;;;;17.98;4.45;;;;;;;;;;5033878;28;20091;-75
2023/06/02 08:37:16;;;;;;;18.23;5.15;;;;;;;;;;5032987;28;20025;-75
2023/06/02 08:39:42;;;;;;;17.90;3.95;;;;;;;;;;5033590;28;20503;-75
2023/06/02 08:42:09;;;;;;;22.45;5.18;;;;;;;;;;5033313;28;20052;-75
2023/06/02 08:44:35;;;;;;;19.40;4.55;;;;;;;;;;5033618;28;20018;-75
2023/06/02 08:47:02;;;;;;;19.00;5.15;;;;;;;;;;5033135;28;20518;-75
2023/06/02 08:49:28;;;;;;;15.48;4.35;;;;;;;;;;5033136;28;20025;-75
2023/06/02 08:52:00;;;;;;;13.93;4.53;;;;;;;;;;5033449;28;20057;-76
2023/06/02 08:54:26;;;;;;;18.67;4.15;;;;;;;;;;5033693;28;20017;-75
2023/06/02 08:56:57;;;;;;;21.27;4.03;;;;;;;;;;5033762;28;20049;-75
2023/06/02 08:59:23;;;;;;;14.88;4.13;;;;;;;;;;5015248;28;20026;-75
2023/06/02 09:01:49;;;;;;;16.60;4.30;;;;;;;;;;5033683;28;20100;-75
2023/06/02 09:04:17;;;;;;;15.18;4.07;;;;;;;;;;5028422;28;20033;-76
2023/06/02 09:06:43;;;;;;;15.50;4.55;;;;;;;;;;5022807;28;20017;-76
2023/06/02 09:09:09;;;;;;;12.05;3.38;;;27.80;34.90;;;;;;4994317;28;20022;-76
2023/06/02 09:11:35;;;;;;;16.73;4.38;;;27.70;34.30;;;;;;5011519;28;20317;-76
2023/06/02 09:14:19;;;;;;;18.25;4.60;;;27.80;34.60;;;;;;5011495;28;20065;-76
2023/06/02 09:16:44;;;;;;;12.73;4.20;;;27.50;35.40;;;;;;5011762;28;20030;-76
2023/06/02 09:19:10;;;;;;;14.38;3.55;;;27.90;34.00;;;;;;5010814;28;20052;-75
2023/06/02 09:21:37;;;;;;;15.38;3.80;;;27.90;34.00;;;;;;5010888;28;20060;-76
2023/06/02 09:24:03;;;;;;;18.92;4.30;;;28.00;33.70;;;;;;4999967;28;20022;-76
2023/06/02 09:26:30;;;;;;;17.08;4.45;;;27.80;34.20;;;;;;5013710;28;20476;-76
2023/06/02 09:29:13;;;;;;;12.35;3.75;;;27.90;34.00;;;;;;5012063;28;20030;-76
2023/06/02 09:31:52;;;;;;;11.70;3.58;;;27.50;34.00;;;;;;5007988;28;20084;-76
2023/06/02 09:34:19;;;;;;;19.55;3.75;;;27.60;34.30;;;;;;5015875;28;20026;-76
2023/06/02 09:36:49;;;;;;;13.27;3.72;;;;;;;;;;5000098;28;20030;-76
2023/06/02 09:39:15;;;;;;;14.10;3.30;;;;;;;;;;5015368;28;20038;-76
2023/06/02 09:41:41;;;;;;;15.43;3.85;;;;;;;;;;5015428;28;20128;-76
2023/06/02 09:44:14;;;;;;;13.85;4.10;;;26.90;35.90;;;;;;5011855;28;20026;-76
2023/06/02 09:46:42;;;;;;;12.27;3.70;;;26.90;35.00;;;;;;5012851;28;20163;-76
2023/06/02 09:49:09;;;;;;;12.32;4.30;;;27.20;34.80;;;;;;4994342;28;20387;-76
2023/06/02 09:51:38;;;;;;;11.85;4.55;;;27.50;34.50;;;;;;5019712;28;20029;-76
2023/06/02 09:54:06;;;;;;;13.60;4.07;;;;;;;;;;5007556;28;20073;-76
2023/06/02 09:56:39;;;;;;;15.57;4.25;;;;;;;;;;5010642;28;20030;-76
2023/06/02 09:59:05;;;;;;;18.40;4.60;;;;;;;;;;5002739;28;20022;-76
2023/06/02 10:01:32;;;;;;;17.73;3.92;;;;;;;;;;4993054;28;20519;-74
2023/06/02 10:03:58;;;;;;;17.17;3.95;;;;;;;;;;5007999;28;20030;-75
2023/06/02 10:06:33;;;;;;;11.50;3.58;;;;;;;;;;5007939;28;20041;-75
2023/06/02 10:09:10;;;;;;;13.10;4.28;;;;;;;;;;5006834;28;20019;-76
2023/06/02 10:11:36;;;;;;;15.40;3.45;;;;;;;;;;5001762;28;20032;-76
2023/06/02 10:14:20;;;;;;;17.67;3.75;;;;;;;;;;5007998;28;20419;-74
2023/06/02 10:16:46;;;;;;;18.42;3.78;;;;;;;;;;5004025;28;20037;-73
2023/06/02 10:19:12;;;;;;;16.45;4.85;;;;;;;;;;5010493;28;20034;-74
2023/06/02 10:21:57;;;;;;;14.10;4.20;;;;;;;;;;5011374;28;20029;-74
2023/06/02 10:24:29;;;;;;;13.93;3.72;;;;;;;;;;5011202;28;20100;-73
2023/06/02 10:26:58;;;;;;;13.43;3.28;;;;;;;;;;5008546;28;20026;-74
2023/06/02 10:29:25;;;;;;;15.95;3.72;;;;;;;;;;5002915;28;20105;-74
2023/06/02 10:31:52;;;;;;;16.15;3.90;;;;;;;;;;5003356;28;20117;-74
2023/06/02 10:34:37;;;;;;;16.92;4.15;;;;;;;;;;5007433;28;20124;-73
2023/06/02 10:37:03;;;;;;;15.02;3.72;;;;;;;;;;4985794;28;20033;-74
2023/06/02 10:39:35;;;;;;;12.23;4.10;;;;;;;;;;5003114;28;20028;-74
2023/06/02 10:42:07;;;;;;;10.18;3.50;;;;;;;;;;5011632;28;20038;-74
2023/06/02 10:44:35;;;;;;;15.00;4.20;;;;;;;;;;5011527;28;20034;-73
2023/06/02 10:47:22;;;;;;;14.93;4.15;;;;;;;;;;5005317;28;20484;-74
2023/06/02 10:50:02;;;;;;;17.13;4.22;;;;;;;;;;4988878;28;20053;-74
2023/06/02 10:52:29;;;;;;;14.45;3.30;;;;;;;;;;5002646;28;20385;-75
2023/06/02 10:55:08;;;;;;;15.88;4.22;;;;;;;;;;5009789;28;20046;-74
2023/06/02 10:57:52;;;;;;;24.95;4.13;;;;;;;;;;5009251;28;20033;-74
2023/06/02 11:00:31;;;;;;;14.45;3.58;;;;;;;;;;5009774;28;20025;-75
2023/06/02 11:02:57;;;;;;;15.00;3.80;;;;;;;;;;5009916;28;20021;-75
2023/06/02 11:05:24;;;;;;;32.75;4.63;;;;;;;;;;5009555;28;20026;-75
2023/06/02 11:08:10;;;;;;;17.90;3.95;;;;;;;;;;4990720;28;20026;-75
2023/06/02 11:10:41;;;;;;;16.45;3.20;;;;;;;;;;5014300;28;20033;-76
2023/06/02 11:13:07;;;;;;;14.18;4.03;;;;;;;;;;5026260;28;20033;-77
2023/06/02 11:15:33;;;;;;;12.88;3.75;;;;;;;;;;5013298;28;20034;-76
2023/06/02 11:18:00;;;;;;;19.77;4.20;;;;;;;;;;5009913;28;20026;-76
2023/06/02 11:20:34;;;;;;;17.45;3.30;;;;;;;;;;5009343;28;20034;-75
2023/06/02 11:23:04;;;;;;;9.45;3.50;;;;;;;;;;5009988;28;20022;-75
2023/06/02 11:25:30;;;;;;;14.75;3.92;;;;;;;;;;5010777;28;20025;-75
2023/06/02 11:27:56;;;;;;;9.85;3.45;;;;;;;;;;4992463;28;20366;-75
2023/06/02 11:30:22;;;;;;;13.90;4.13;;;;;;;;;;5010582;28;20504;-75
2023/06/02 11:32:49;;;;;;;14.10;3.60;;;;;;;;;;5011064;28;20487;-76
2023/06/02 11:35:16;;;;;;;13.15;3.97;;;;;;;;;;4993887;28;20029;-76
2023/06/02 11:37:43;;;;;;;17.13;3.30;;;;;;;;;;5010606;28;20176;-75
2023/06/02 11:40:11;;;;;;;13.00;3.55;;;;;;;;;;5011063;28;20026;-75
2023/06/02 11:42:38;;;;;;;13.73;4.40;;;;;;;;;;5011114;28;20026;-75
2023/06/02 11:45:05;;;;;;;17.02;4.30;;;;;;;;;;5011351;28;20038;-75
2023/06/02 11:47:31;;;;;;;14.20;3.92;;;;;;;;;;5010497;28;20042;-75
2023/06/02 11:49:57;;;;;;;13.00;3.38;;;;;;;;;;5011089;28;20052;-75
2023/06/02 11:52:23;;;;;;;15.57;3.28;;;;;;;;;;5011277;28;20617;-75
2023/06/02 11:54:50;;;;;;;10.77;3.38;;;;;;;;;;5011422;28;20057;-75
2023/06/02 11:57:27;;;;;;;8.82;2.58;;;;;;;;;;4993251;28;20061;-75
2023/06/02 12:00:09;;;;;;;15.02;4.07;;;;;;;;;;5011469;28;20072;-75
2023/06/02 12:02:36;;;;;;;14.43;3.60;;;;;;;;;;5011540;28;20038;-75
2023/06/02 12:05:03;;;;;;;19.10;3.42;;;;;;;;;;5013389;28;20018;-75
2023/06/02 12:07:29;;;;;;;12.77;3.63;;;;;;;;;;5013188;28;20073;-75
2023/06/02 12:09:55;;;;;;;13.02;3.60;;;;;;;;;;5014923;28;20033;-75
2023/06/02 12:12:21;;;;;;;21.90;3.75;;;;;;;;;;5014920;28;20033;-75
2023/06/02 12:14:48;;;;;;;20.67;3.65;;;;;;;;;;4997193;28;20029;-74
2023/06/02 12:17:14;;;;;;;17.60;3.92;;;;;;;;;;4996536;28;20480;-75
2023/06/02 12:19:40;;;;;;;15.02;3.95;;;;;;;;;;5014594;28;20026;-75
2023/06/02 12:22:10;;;;;;;21.42;4.10;;;;;;;;;;5014408;28;20026;-75
2023/06/02 12:24:40;;;;;;;18.50;4.00;;;;;;;;;;4997097;28;20535;-75
2023/06/02 12:27:10;;;;;;;20.98;4.45;;;;;;;;;;5013671;28;20056;-75
2023/06/02 12:29:37;;;;;;;15.45;4.32;;;;;;;;;;5014268;28;20360;-75
2023/06/02 12:32:05;;;;;;;14.45;4.15;;;;;;;;;;5014268;28;20369;-76
2023/06/02 12:34:31;;;;;;;16.35;4.13;;;;;;;;;;5014354;28;20022;-76
2023/06/02 12:36:57;;;;;;;16.92;3.95;;;;;;;;;;5014016;28;20377;-75
2023/06/02 12:39:26;;;;;;;18.90;4.43;;;;;;;;;;5013614;28;20026;-75
2023/06/02 12:41:52;;;;;;;12.65;3.92;;;;;;;;;;5013991;28;20037;-75
2023/06/02 12:44:19;;;;;;;17.20;4.18;;;;;;;;;;4996686;28;20018;-75
2023/06/02 12:46:45;;;;;;;23.42;4.50;;;;;;;;;;5013894;28;20072;-75
2023/06/02 12:49:12;;;;;;;17.17;4.20;;;;;;;;;;5013332;28;20089;-75
2023/06/02 12:51:38;;;;;;;15.52;3.95;;;;;;;;;;4996124;28;20559;-75
2023/06/02 12:54:04;;;;;;;18.52;3.90;;;;;;;;;;4996372;28;20507;-74
2023/06/02 12:56:30;;;;;;;13.85;3.67;;;;;;;;;;4996152;28;20049;-75
2023/06/02 12:58:57;;;;;;;14.63;4.05;;;;;;;;;;5012892;28;20026;-75
2023/06/02 13:01:23;;;;;;;9.52;3.60;;;;;;;;;;5013409;28;20026;-75
2023/06/02 13:03:53;;;;;;;12.30;3.75;;;;;;;;;;5013666;28;20033;-75
2023/06/02 13:06:19;;;;;;;15.88;4.00;;;;;;;;;;4994303;28;20045;-75
2023/06/02 13:08:46;;;;;;;12.55;3.40;;;;;;;;;;5012941;28;20099;-76
2023/06/02 13:11:13;;;;;;;14.63;3.83;;;;;;;;;;4996026;28;20038;-75
2023/06/02 13:13:39;;;;;;;12.75;3.13;;;;;;;;;;5013518;28;20548;-75
2023/06/02 13:16:06;;;;;;;15.05;3.70;;;;;;;;;;5012508;28;20034;-76
2023/06/02 13:18:33;;;;;;;13.05;3.75;;;;;;;;;;5012762;28;20739;-75
2023/06/02 13:20:59;;;;;;;9.93;3.38;;;;;;;;;;4995681;28;20042;-74
2023/06/02 13:23:25;;;;;;;17.17;3.75;;;;;;;;;;5013741;28;20018;-76
2023/06/02 13:25:51;;;;;;;15.80;4.03;;;;;;;;;;5013122;28;20022;-75
2023/06/02 13:28:17;;;;;;;13.35;3.95;;;;;;;;;;4994923;28;20062;-74
2023/06/02 13:30:43;;;;;;;10.43;3.15;;;;;;;;;;5070091;22;20064;-78
2023/06/02 13:33:19;;;;;;;12.45;3.47;;;;;;;;;;5057119;28;20059;-79
2023/06/02 13:35:50;;;;;;;12.98;3.35;;;;;;;;;;5056211;28;20037;-79
2023/06/02 13:38:22;;;;;;;10.52;3.55;;;;;;;;;;5055720;28;20029;-80
2023/06/02 13:40:50;;;;;;;15.40;3.75;;;;;;;;;;5057333;28;20032;-79
2023/06/02 13:43:23;;;;;;;11.98;3.50;;;;;;;;;;5059158;28;20021;-78
2023/06/02 13:45:49;;;;;;;18.63;3.88;;;;;;;;;;5059472;28;20021;-79
2023/06/02 13:48:20;;;;;;;12.35;4.45;;;;;;;;;;5058827;28;20498;-78
2023/06/02 13:50:52;;;;;;;15.57;4.15;;;;;;;;;;5069743;28;20025;-79
2023/06/02 13:53:26;;;;;;;11.77;3.60;;;;;;;;;;5063622;28;20039;-79
2023/06/02 13:56:08;;;;;;;11.93;3.88;;;;;;;;;;5057360;28;20033;-80
2023/06/02 13:58:35;;;;;;;12.15;4.18;;;;;;;;;;5057335;28;20485;-79
2023/06/02 14:01:06;;;;;;;8.43;3.75;;;;;;;;;;5057522;28;20028;-79
2023/06/02 14:03:32;;;;;;;15.55;3.83;;;;;;;;;;5058255;28;20040;-79
2023/06/02 14:06:08;;;;;;;13.88;4.28;;;;;;;;;;5058255;28;20021;-79
2023/06/02 14:08:36;;;;;;;9.82;4.10;;;;;;;;;;5039080;28;20025;-80
2023/06/02 14:11:10;;;;;;;8.93;3.70;;;;;;;;;;5058166;28;20029;-80
2023/06/02 14:13:36;;;;;;;14.30;3.85;;;;;;;;;;5058294;28;20029;-80
2023/06/02 14:16:05;;;;;;;18.25;3.85;;;;;;;;;;5039853;28;20028;-79
2023/06/02 14:18:34;;;;;;;10.48;3.63;;;;;;;;;;5039063;28;20032;-79
2023/06/02 14:21:05;;;;;;;8.55;3.53;;;;;;;;;;5058424;28;20022;-79
2023/06/02 14:23:37;;;;;;;11.45;3.60;;;;;;;;;;5057539;28;20027;-79